sensor_id;sensor_type;location;lat;lon;timestamp;P1;durP1;ratioP1;P2;durP2;ratioP2
72156;SDS011;60035;52.122;5.406;2022-11-18T00:00:54;9.60;;;3.30;;
72156;SDS011;60035;52.122;5.406;2022-11-18T00:03:21;8.38;;;2.97;;
72156;SDS011;60035;52.122;5.406;2022-11-18T00:05:51;9.25;;;3.28;;
72156;SDS011;60035;52.122;5.406;2022-11-18T00:08:22;8.60;;;2.83;;
72156;SDS011;60035;52.122;5.406;2022-11-18T00:10:50;8.73;;;2.42;;
72156;SDS011;60035;52.122;5.406;2022-11-18T00:13:17;7.95;;;2.72;;
72156;SDS011;60035;52.122;5.406;2022-11-18T00:16:06;9.10;;;2.70;;
72156;SDS011;60035;52.122;5.406;2022-11-18T00:18:36;6.07;;;2.78;;
72156;SDS011;60035;52.122;5.406;2022-11-18T00:21:07;10.68;;;3.15;;
72156;SDS011;60035;52.122;5.406;2022-11-18T00:23:34;10.80;;;2.88;;
72156;SDS011;60035;52.122;5.406;2022-11-18T00:26:02;7.68;;;3.20;;
72156;SDS011;60035;52.122;5.406;2022-11-18T00:28:33;7.13;;;2.90;;
72156;SDS011;60035;52.122;5.406;2022-11-18T00:31:04;9.27;;;3.10;;
72156;SDS011;60035;52.122;5.406;2022-11-18T00:33:33;7.45;;;2.70;;
72156;SDS011;60035;52.122;5.406;2022-11-18T00:36:02;7.53;;;3.00;;
72156;SDS011;60035;52.122;5.406;2022-11-18T00:38:30;9.45;;;3.00;;
72156;SDS011;60035;52.122;5.406;2022-11-18T00:41:00;8.55;;;3.00;;
72156;SDS011;60035;52.122;5.406;2022-11-18T00:43:31;10.20;;;2.97;;
72156;SDS011;60035;52.122;5.406;2022-11-18T00:45:57;7.47;;;2.70;;
72156;SDS011;60035;52.122;5.406;2022-11-18T00:48:24;9.30;;;3.35;;
72156;SDS011;60035;52.122;5.406;2022-11-18T00:50:51;11.50;;;3.10;;
72156;SDS011;60035;52.122;5.406;2022-11-18T00:53:20;9.32;;;3.97;;
72156;SDS011;60035;52.122;5.406;2022-11-18T00:55:48;13.98;;;5.07;;
72156;SDS011;60035;52.122;5.406;2022-11-18T00:58:16;11.00;;;3.20;;
72156;SDS011;60035;52.122;5.406;2022-11-18T01:00:43;6.82;;;2.75;;
72156;SDS011;60035;52.122;5.406;2022-11-18T01:03:11;7.68;;;3.08;;
72156;SDS011;60035;52.122;5.406;2022-11-18T01:05:38;9.73;;;2.78;;
72156;SDS011;60035;52.122;5.406;2022-11-18T01:08:05;9.13;;;3.00;;
72156;SDS011;60035;52.122;5.406;2022-11-18T01:10:34;9.18;;;3.05;;
72156;SDS011;60035;52.122;5.406;2022-11-18T01:13:02;9.57;;;2.70;;
72156;SDS011;60035;52.122;5.406;2022-11-18T01:15:49;6.53;;;2.90;;
72156;SDS011;60035;52.122;5.406;2022-11-18T01:18:21;7.88;;;3.08;;
72156;SDS011;60035;52.122;5.406;2022-11-18T01:20:50;9.60;;;3.33;;
72156;SDS011;60035;52.122;5.406;2022-11-18T01:23:16;8.23;;;2.80;;
72156;SDS011;60035;52.122;5.406;2022-11-18T01:25:45;9.57;;;2.92;;
72156;SDS011;60035;52.122;5.406;2022-11-18T01:28:15;8.63;;;2.67;;
72156;SDS011;60035;52.122;5.406;2022-11-18T01:30:49;9.07;;;3.47;;
72156;SDS011;60035;52.122;5.406;2022-11-18T01:33:15;10.52;;;2.97;;
72156;SDS011;60035;52.122;5.406;2022-11-18T01:35:42;8.90;;;3.40;;
72156;SDS011;60035;52.122;5.406;2022-11-18T01:38:10;8.07;;;2.83;;
72156;SDS011;60035;52.122;5.406;2022-11-18T01:40:38;7.05;;;2.85;;
72156;SDS011;60035;52.122;5.406;2022-11-18T01:43:09;8.40;;;3.38;;
72156;SDS011;60035;52.122;5.406;2022-11-18T01:45:39;9.98;;;3.50;;
72156;SDS011;60035;52.122;5.406;2022-11-18T01:50:37;10.48;;;3.13;;
72156;SDS011;60035;52.122;5.406;2022-11-18T01:53:08;9.65;;;2.78;;
72156;SDS011;60035;52.122;5.406;2022-11-18T01:55:40;7.80;;;3.00;;
72156;SDS011;60035;52.122;5.406;2022-11-18T01:58:14;10.32;;;3.20;;
72156;SDS011;60035;52.122;5.406;2022-11-18T02:00:59;6.45;;;2.97;;
72156;SDS011;60035;52.122;5.406;2022-11-18T02:03:26;9.95;;;3.38;;
72156;SDS011;60035;52.122;5.406;2022-11-18T02:05:52;8.77;;;2.78;;
72156;SDS011;60035;52.122;5.406;2022-11-18T02:08:20;8.52;;;3.17;;
72156;SDS011;60035;52.122;5.406;2022-11-18T02:10:48;8.02;;;3.00;;
72156;SDS011;60035;52.122;5.406;2022-11-18T02:13:14;11.63;;;3.53;;
72156;SDS011;60035;52.122;5.406;2022-11-18T02:15:48;7.15;;;3.05;;
72156;SDS011;60035;52.122;5.406;2022-11-18T02:21:20;7.82;;;2.92;;
72156;SDS011;60035;52.122;5.406;2022-11-18T02:24:34;8.02;;;3.10;;
72156;SDS011;60035;52.122;5.406;2022-11-18T02:30:08;9.05;;;3.17;;
72156;SDS011;60035;52.122;5.406;2022-11-18T02:32:44;8.45;;;2.85;;
72156;SDS011;60035;52.122;5.406;2022-11-18T02:35:21;8.52;;;2.75;;
72156;SDS011;60035;52.122;5.406;2022-11-18T02:37:55;9.63;;;3.00;;
72156;SDS011;60035;52.122;5.406;2022-11-18T02:40:37;8.95;;;3.10;;
72156;SDS011;60035;52.122;5.406;2022-11-18T02:45:37;7.60;;;3.28;;
72156;SDS011;60035;52.122;5.406;2022-11-18T02:48:12;9.57;;;3.25;;
72156;SDS011;60035;52.122;5.406;2022-11-18T02:50:40;9.38;;;3.00;;
72156;SDS011;60035;52.122;5.406;2022-11-18T02:53:11;10.63;;;2.88;;
72156;SDS011;60035;52.122;5.406;2022-11-18T02:55:41;9.43;;;3.28;;
72156;SDS011;60035;52.122;5.406;2022-11-18T02:58:11;13.00;;;3.60;;
72156;SDS011;60035;52.122;5.406;2022-11-18T03:00:41;8.55;;;3.38;;
72156;SDS011;60035;52.122;5.406;2022-11-18T03:03:28;8.65;;;2.88;;
72156;SDS011;60035;52.122;5.406;2022-11-18T03:06:08;9.45;;;3.05;;
72156;SDS011;60035;52.122;5.406;2022-11-18T03:08:55;7.18;;;3.17;;
72156;SDS011;60035;52.122;5.406;2022-11-18T03:11:29;7.03;;;3.17;;
72156;SDS011;60035;52.122;5.406;2022-11-18T03:30:18;11.02;;;3.10;;
72156;SDS011;60035;52.122;5.406;2022-11-18T03:32:55;9.00;;;3.22;;
72156;SDS011;60035;52.122;5.406;2022-11-18T03:35:30;8.82;;;3.45;;
72156;SDS011;60035;52.122;5.406;2022-11-18T03:38:04;10.07;;;3.60;;
72156;SDS011;60035;52.122;5.406;2022-11-18T03:40:38;6.90;;;2.95;;
72156;SDS011;60035;52.122;5.406;2022-11-18T03:43:12;11.73;;;3.33;;
72156;SDS011;60035;52.122;5.406;2022-11-18T03:45:49;11.88;;;3.40;;
72156;SDS011;60035;52.122;5.406;2022-11-18T03:48:20;9.20;;;3.42;;
72156;SDS011;60035;52.122;5.406;2022-11-18T03:50:52;9.13;;;3.15;;
72156;SDS011;60035;52.122;5.406;2022-11-18T03:53:22;8.13;;;2.53;;
72156;SDS011;60035;52.122;5.406;2022-11-18T03:55:53;6.40;;;2.95;;
72156;SDS011;60035;52.122;5.406;2022-11-18T03:58:37;9.65;;;3.35;;
72156;SDS011;60035;52.122;5.406;2022-11-18T04:01:15;9.32;;;3.22;;
72156;SDS011;60035;52.122;5.406;2022-11-18T04:03:46;10.20;;;3.17;;
72156;SDS011;60035;52.122;5.406;2022-11-18T04:09:17;8.75;;;3.20;;
72156;SDS011;60035;52.122;5.406;2022-11-18T04:11:49;7.43;;;3.40;;
72156;SDS011;60035;52.122;5.406;2022-11-18T04:14:40;8.10;;;3.22;;
72156;SDS011;60035;52.122;5.406;2022-11-18T04:17:16;8.95;;;3.03;;
72156;SDS011;60035;52.122;5.406;2022-11-18T04:19:45;6.75;;;2.92;;
72156;SDS011;60035;52.122;5.406;2022-11-18T04:22:12;9.38;;;3.38;;
72156;SDS011;60035;52.122;5.406;2022-11-18T04:24:38;13.27;;;3.92;;
72156;SDS011;60035;52.122;5.406;2022-11-18T04:27:06;8.32;;;3.40;;
72156;SDS011;60035;52.122;5.406;2022-11-18T04:29:33;11.88;;;3.33;;
72156;SDS011;60035;52.122;5.406;2022-11-18T04:32:00;10.88;;;3.30;;
72156;SDS011;60035;52.122;5.406;2022-11-18T04:34:27;8.65;;;3.67;;
72156;SDS011;60035;52.122;5.406;2022-11-18T04:36:54;7.70;;;2.88;;
72156;SDS011;60035;52.122;5.406;2022-11-18T04:39:21;9.57;;;3.60;;
72156;SDS011;60035;52.122;5.406;2022-11-18T04:41:48;9.23;;;3.53;;
72156;SDS011;60035;52.122;5.406;2022-11-18T04:44:21;10.32;;;3.58;;
72156;SDS011;60035;52.122;5.406;2022-11-18T04:46:48;7.30;;;3.40;;
72156;SDS011;60035;52.122;5.406;2022-11-18T04:49:14;8.10;;;3.20;;
72156;SDS011;60035;52.122;5.406;2022-11-18T04:51:42;8.70;;;2.67;;
72156;SDS011;60035;52.122;5.406;2022-11-18T04:54:09;10.50;;;3.65;;
72156;SDS011;60035;52.122;5.406;2022-11-18T04:56:36;11.15;;;3.20;;
72156;SDS011;60035;52.122;5.406;2022-11-18T04:59:04;8.25;;;3.28;;
72156;SDS011;60035;52.122;5.406;2022-11-18T05:01:31;9.98;;;2.92;;
72156;SDS011;60035;52.122;5.406;2022-11-18T05:03:58;9.18;;;3.22;;
72156;SDS011;60035;52.122;5.406;2022-11-18T05:06:27;9.35;;;3.40;;
72156;SDS011;60035;52.122;5.406;2022-11-18T05:08:55;7.80;;;2.80;;
72156;SDS011;60035;52.122;5.406;2022-11-18T05:11:22;10.57;;;3.20;;
72156;SDS011;60035;52.122;5.406;2022-11-18T05:14:08;9.18;;;3.03;;
72156;SDS011;60035;52.122;5.406;2022-11-18T05:16:34;10.85;;;3.05;;
72156;SDS011;60035;52.122;5.406;2022-11-18T05:19:01;11.95;;;3.00;;
72156;SDS011;60035;52.122;5.406;2022-11-18T05:23:59;8.55;;;3.00;;
72156;SDS011;60035;52.122;5.406;2022-11-18T05:26:26;10.85;;;3.55;;
72156;SDS011;60035;52.122;5.406;2022-11-18T05:28:53;8.27;;;3.67;;
72156;SDS011;60035;52.122;5.406;2022-11-18T05:31:19;8.30;;;3.13;;
72156;SDS011;60035;52.122;5.406;2022-11-18T05:33:46;7.20;;;3.17;;
72156;SDS011;60035;52.122;5.406;2022-11-18T05:36:13;10.45;;;3.28;;
72156;SDS011;60035;52.122;5.406;2022-11-18T05:38:42;9.82;;;3.15;;
72156;SDS011;60035;52.122;5.406;2022-11-18T05:41:09;9.55;;;3.50;;
72156;SDS011;60035;52.122;5.406;2022-11-18T05:43:56;8.02;;;3.20;;
72156;SDS011;60035;52.122;5.406;2022-11-18T05:46:24;7.75;;;3.10;;
72156;SDS011;60035;52.122;5.406;2022-11-18T05:48:51;9.45;;;3.70;;
72156;SDS011;60035;52.122;5.406;2022-11-18T05:51:18;15.25;;;3.72;;
72156;SDS011;60035;52.122;5.406;2022-11-18T05:53:45;14.73;;;3.30;;
72156;SDS011;60035;52.122;5.406;2022-11-18T05:56:21;8.43;;;3.50;;
72156;SDS011;60035;52.122;5.406;2022-11-18T05:58:54;8.38;;;3.17;;
72156;SDS011;60035;52.122;5.406;2022-11-18T06:01:31;9.75;;;3.28;;
72156;SDS011;60035;52.122;5.406;2022-11-18T06:04:06;9.63;;;3.55;;
72156;SDS011;60035;52.122;5.406;2022-11-18T06:06:36;10.23;;;3.55;;
72156;SDS011;60035;52.122;5.406;2022-11-18T06:09:03;11.63;;;3.55;;
72156;SDS011;60035;52.122;5.406;2022-11-18T06:11:34;10.40;;;3.58;;
72156;SDS011;60035;52.122;5.406;2022-11-18T06:14:07;9.45;;;3.42;;
72156;SDS011;60035;52.122;5.406;2022-11-18T06:16:38;10.55;;;3.80;;
72156;SDS011;60035;52.122;5.406;2022-11-18T06:19:14;10.50;;;4.18;;
72156;SDS011;60035;52.122;5.406;2022-11-18T06:21:42;9.48;;;4.22;;
72156;SDS011;60035;52.122;5.406;2022-11-18T06:24:10;10.85;;;4.22;;
72156;SDS011;60035;52.122;5.406;2022-11-18T06:26:39;14.27;;;4.68;;
72156;SDS011;60035;52.122;5.406;2022-11-18T06:29:06;9.90;;;3.95;;
72156;SDS011;60035;52.122;5.406;2022-11-18T06:31:35;9.73;;;4.38;;
72156;SDS011;60035;52.122;5.406;2022-11-18T06:34:01;10.27;;;4.07;;
72156;SDS011;60035;52.122;5.406;2022-11-18T06:36:27;10.00;;;4.00;;
72156;SDS011;60035;52.122;5.406;2022-11-18T06:38:54;12.90;;;4.28;;
72156;SDS011;60035;52.122;5.406;2022-11-18T06:41:20;11.45;;;4.30;;
72156;SDS011;60035;52.122;5.406;2022-11-18T06:43:47;8.65;;;3.47;;
72156;SDS011;60035;52.122;5.406;2022-11-18T06:46:16;11.05;;;3.72;;
72156;SDS011;60035;52.122;5.406;2022-11-18T06:49:01;7.90;;;3.08;;
72156;SDS011;60035;52.122;5.406;2022-11-18T06:51:28;9.30;;;4.00;;
72156;SDS011;60035;52.122;5.406;2022-11-18T06:53:55;10.00;;;3.83;;
72156;SDS011;60035;52.122;5.406;2022-11-18T06:56:22;10.25;;;3.95;;
72156;SDS011;60035;52.122;5.406;2022-11-18T06:58:52;11.55;;;3.88;;
72156;SDS011;60035;52.122;5.406;2022-11-18T07:01:21;10.45;;;4.13;;
72156;SDS011;60035;52.122;5.406;2022-11-18T07:03:52;11.13;;;3.50;;
72156;SDS011;60035;52.122;5.406;2022-11-18T07:06:23;12.02;;;4.10;;
72156;SDS011;60035;52.122;5.406;2022-11-18T07:08:51;8.88;;;3.15;;
72156;SDS011;60035;52.122;5.406;2022-11-18T07:11:18;9.00;;;4.03;;
72156;SDS011;60035;52.122;5.406;2022-11-18T07:13:47;10.98;;;3.17;;
72156;SDS011;60035;52.122;5.406;2022-11-18T07:16:14;11.57;;;3.85;;
72156;SDS011;60035;52.122;5.406;2022-11-18T07:18:43;9.38;;;3.55;;
72156;SDS011;60035;52.122;5.406;2022-11-18T07:21:11;12.27;;;3.35;;
72156;SDS011;60035;52.122;5.406;2022-11-18T07:23:40;9.18;;;3.58;;
72156;SDS011;60035;52.122;5.406;2022-11-18T07:26:07;10.75;;;3.38;;
72156;SDS011;60035;52.122;5.406;2022-11-18T07:28:34;8.43;;;3.15;;
72156;SDS011;60035;52.122;5.406;2022-11-18T07:33:28;11.02;;;3.63;;
72156;SDS011;60035;52.122;5.406;2022-11-18T07:35:59;9.25;;;4.00;;
72156;SDS011;60035;52.122;5.406;2022-11-18T07:38:30;11.55;;;3.92;;
72156;SDS011;60035;52.122;5.406;2022-11-18T07:41:10;12.23;;;3.47;;
72156;SDS011;60035;52.122;5.406;2022-11-18T07:43:41;9.80;;;3.78;;
72156;SDS011;60035;52.122;5.406;2022-11-18T07:48:35;11.00;;;3.78;;
72156;SDS011;60035;52.122;5.406;2022-11-18T07:51:02;9.27;;;3.78;;
72156;SDS011;60035;52.122;5.406;2022-11-18T07:53:29;9.15;;;3.30;;
72156;SDS011;60035;52.122;5.406;2022-11-18T07:55:57;8.98;;;2.70;;
72156;SDS011;60035;52.122;5.406;2022-11-18T07:58:23;11.48;;;3.28;;
72156;SDS011;60035;52.122;5.406;2022-11-18T08:00:50;9.27;;;3.45;;
72156;SDS011;60035;52.122;5.406;2022-11-18T08:03:16;11.10;;;3.67;;
72156;SDS011;60035;52.122;5.406;2022-11-18T08:05:43;8.63;;;3.50;;
72156;SDS011;60035;52.122;5.406;2022-11-18T08:08:09;11.68;;;3.80;;
72156;SDS011;60035;52.122;5.406;2022-11-18T08:10:36;10.77;;;3.28;;
72156;SDS011;60035;52.122;5.406;2022-11-18T08:13:03;9.85;;;3.45;;
72156;SDS011;60035;52.122;5.406;2022-11-18T08:15:29;9.60;;;3.40;;
72156;SDS011;60035;52.122;5.406;2022-11-18T08:17:56;12.88;;;3.63;;
72156;SDS011;60035;52.122;5.406;2022-11-18T08:20:22;11.10;;;3.22;;
72156;SDS011;60035;52.122;5.406;2022-11-18T08:22:52;13.13;;;3.35;;
72156;SDS011;60035;52.122;5.406;2022-11-18T08:25:19;11.52;;;3.13;;
72156;SDS011;60035;52.122;5.406;2022-11-18T08:27:45;9.13;;;2.92;;
72156;SDS011;60035;52.122;5.406;2022-11-18T08:30:12;11.45;;;3.35;;
72156;SDS011;60035;52.122;5.406;2022-11-18T08:32:38;8.38;;;3.47;;
72156;SDS011;60035;52.122;5.406;2022-11-18T08:35:05;10.43;;;4.00;;
72156;SDS011;60035;52.122;5.406;2022-11-18T08:37:36;8.77;;;3.60;;
72156;SDS011;60035;52.122;5.406;2022-11-18T08:40:03;10.18;;;3.88;;
72156;SDS011;60035;52.122;5.406;2022-11-18T08:42:31;9.18;;;3.65;;
72156;SDS011;60035;52.122;5.406;2022-11-18T08:44:59;9.57;;;3.38;;
72156;SDS011;60035;52.122;5.406;2022-11-18T08:47:26;8.68;;;3.30;;
72156;SDS011;60035;52.122;5.406;2022-11-18T08:49:52;9.20;;;3.72;;
72156;SDS011;60035;52.122;5.406;2022-11-18T08:52:19;6.65;;;2.80;;
72156;SDS011;60035;52.122;5.406;2022-11-18T08:54:45;11.52;;;3.42;;
72156;SDS011;60035;52.122;5.406;2022-11-18T08:57:12;13.45;;;4.20;;
72156;SDS011;60035;52.122;5.406;2022-11-18T08:59:38;10.93;;;3.53;;
72156;SDS011;60035;52.122;5.406;2022-11-18T09:02:05;11.18;;;3.75;;
72156;SDS011;60035;52.122;5.406;2022-11-18T09:04:31;8.80;;;3.05;;
72156;SDS011;60035;52.122;5.406;2022-11-18T09:06:58;8.32;;;2.67;;
72156;SDS011;60035;52.122;5.406;2022-11-18T09:09:28;9.18;;;3.45;;
72156;SDS011;60035;52.122;5.406;2022-11-18T09:11:54;10.25;;;3.42;;
72156;SDS011;60035;52.122;5.406;2022-11-18T09:14:20;10.65;;;3.75;;
72156;SDS011;60035;52.122;5.406;2022-11-18T09:17:09;10.52;;;3.47;;
72156;SDS011;60035;52.122;5.406;2022-11-18T09:19:36;9.35;;;3.13;;
72156;SDS011;60035;52.122;5.406;2022-11-18T09:22:23;8.32;;;3.55;;
72156;SDS011;60035;52.122;5.406;2022-11-18T09:24:50;9.40;;;3.50;;
72156;SDS011;60035;52.122;5.406;2022-11-18T09:27:16;10.13;;;3.40;;
72156;SDS011;60035;52.122;5.406;2022-11-18T09:29:43;7.53;;;3.55;;
72156;SDS011;60035;52.122;5.406;2022-11-18T09:32:10;10.15;;;3.75;;
72156;SDS011;60035;52.122;5.406;2022-11-18T09:34:37;6.90;;;3.00;;
72156;SDS011;60035;52.122;5.406;2022-11-18T09:37:04;10.68;;;3.60;;
72156;SDS011;60035;52.122;5.406;2022-11-18T09:39:35;10.25;;;3.72;;
72156;SDS011;60035;52.122;5.406;2022-11-18T09:49:55;8.80;;;3.45;;
72156;SDS011;60035;52.122;5.406;2022-11-18T09:52:27;11.75;;;3.60;;
72156;SDS011;60035;52.122;5.406;2022-11-18T09:55:02;10.98;;;3.97;;
72156;SDS011;60035;52.122;5.406;2022-11-18T09:57:37;9.43;;;3.45;;
72156;SDS011;60035;52.122;5.406;2022-11-18T10:00:12;11.02;;;3.72;;
72156;SDS011;60035;52.122;5.406;2022-11-18T10:05:32;10.60;;;3.45;;
72156;SDS011;60035;52.122;5.406;2022-11-18T10:16:05;7.55;;;3.60;;
72156;SDS011;60035;52.122;5.406;2022-11-18T10:18:41;8.02;;;3.40;;
72156;SDS011;60035;52.122;5.406;2022-11-18T10:21:33;8.73;;;3.35;;
72156;SDS011;60035;52.122;5.406;2022-11-18T10:24:15;10.23;;;3.65;;
72156;SDS011;60035;52.122;5.406;2022-11-18T10:26:45;10.18;;;3.38;;
72156;SDS011;60035;52.122;5.406;2022-11-18T10:29:12;8.38;;;3.33;;
72156;SDS011;60035;52.122;5.406;2022-11-18T10:31:39;10.77;;;3.03;;
72156;SDS011;60035;52.122;5.406;2022-11-18T10:34:23;8.45;;;3.35;;
72156;SDS011;60035;52.122;5.406;2022-11-18T10:37:03;8.10;;;3.05;;
72156;SDS011;60035;52.122;5.406;2022-11-18T10:40:09;12.88;;;3.75;;
72156;SDS011;60035;52.122;5.406;2022-11-18T10:42:52;10.38;;;3.65;;
72156;SDS011;60035;52.122;5.406;2022-11-18T10:50:47;9.93;;;3.42;;
72156;SDS011;60035;52.122;5.406;2022-11-18T10:53:30;9.65;;;3.58;;
72156;SDS011;60035;52.122;5.406;2022-11-18T10:56:00;8.73;;;4.15;;
72156;SDS011;60035;52.122;5.406;2022-11-18T10:58:31;10.07;;;4.25;;
72156;SDS011;60035;52.122;5.406;2022-11-18T11:06:31;11.05;;;3.90;;
72156;SDS011;60035;52.122;5.406;2022-11-18T11:09:01;10.38;;;3.42;;
72156;SDS011;60035;52.122;5.406;2022-11-18T11:16:46;9.73;;;3.95;;
72156;SDS011;60035;52.122;5.406;2022-11-18T11:19:17;9.18;;;3.38;;
72156;SDS011;60035;52.122;5.406;2022-11-18T11:21:47;8.60;;;3.03;;
72156;SDS011;60035;52.122;5.406;2022-11-18T11:24:14;11.73;;;3.78;;
72156;SDS011;60035;52.122;5.406;2022-11-18T11:26:52;8.77;;;3.58;;
72156;SDS011;60035;52.122;5.406;2022-11-18T11:29:53;10.35;;;3.70;;
72156;SDS011;60035;52.122;5.406;2022-11-18T11:35:45;8.88;;;3.53;;
72156;SDS011;60035;52.122;5.406;2022-11-18T11:41:34;6.65;;;2.85;;
72156;SDS011;60035;52.122;5.406;2022-11-18T11:44:10;9.43;;;3.38;;
72156;SDS011;60035;52.122;5.406;2022-11-18T11:47:12;13.23;;;3.95;;
72156;SDS011;60035;52.122;5.406;2022-11-18T11:50:12;12.90;;;4.63;;
72156;SDS011;60035;52.122;5.406;2022-11-18T11:53:06;10.23;;;4.32;;
72156;SDS011;60035;52.122;5.406;2022-11-18T12:07:11;12.38;;;4.50;;
72156;SDS011;60035;52.122;5.406;2022-11-18T12:09:50;11.23;;;3.85;;
72156;SDS011;60035;52.122;5.406;2022-11-18T12:12:31;9.10;;;3.67;;
72156;SDS011;60035;52.122;5.406;2022-11-18T12:15:15;9.93;;;3.75;;
72156;SDS011;60035;52.122;5.406;2022-11-18T12:23:09;10.75;;;3.78;;
72156;SDS011;60035;52.122;5.406;2022-11-18T12:33:55;11.73;;;4.45;;
72156;SDS011;60035;52.122;5.406;2022-11-18T12:44:31;10.75;;;4.22;;
72156;SDS011;60035;52.122;5.406;2022-11-18T12:46:58;10.95;;;4.78;;
72156;SDS011;60035;52.122;5.406;2022-11-18T12:51:53;12.70;;;5.40;;
72156;SDS011;60035;52.122;5.406;2022-11-18T12:54:43;12.48;;;4.95;;
72156;SDS011;60035;52.122;5.406;2022-11-18T12:57:21;11.48;;;4.85;;
72156;SDS011;60035;52.122;5.406;2022-11-18T12:59:51;12.90;;;5.70;;
72156;SDS011;60035;52.122;5.406;2022-11-18T13:05:09;15.27;;;4.95;;
72156;SDS011;60035;52.122;5.406;2022-11-18T13:10:38;11.52;;;5.07;;
72156;SDS011;60035;52.122;5.406;2022-11-18T13:13:29;10.75;;;5.05;;
72156;SDS011;60035;52.122;5.406;2022-11-18T13:16:01;9.32;;;4.80;;
72156;SDS011;60035;52.122;5.406;2022-11-18T13:19:04;11.63;;;5.30;;
72156;SDS011;60035;52.122;5.406;2022-11-18T13:21:31;13.40;;;6.00;;
72156;SDS011;60035;52.122;5.406;2022-11-18T13:24:21;11.85;;;5.18;;
72156;SDS011;60035;52.122;5.406;2022-11-18T13:26:52;12.02;;;5.13;;
72156;SDS011;60035;52.122;5.406;2022-11-18T13:29:33;12.02;;;5.80;;
72156;SDS011;60035;52.122;5.406;2022-11-18T13:34:43;11.07;;;5.65;;
72156;SDS011;60035;52.122;5.406;2022-11-18T13:37:18;13.25;;;6.10;;
72156;SDS011;60035;52.122;5.406;2022-11-18T13:39:48;15.00;;;5.95;;
72156;SDS011;60035;52.122;5.406;2022-11-18T13:42:19;13.27;;;6.20;;
72156;SDS011;60035;52.122;5.406;2022-11-18T13:44:51;13.98;;;6.72;;
72156;SDS011;60035;52.122;5.406;2022-11-18T13:55:33;11.13;;;5.30;;
72156;SDS011;60035;52.122;5.406;2022-11-18T13:58:20;12.60;;;7.30;;
72156;SDS011;60035;52.122;5.406;2022-11-18T14:00:56;18.40;;;6.93;;
72156;SDS011;60035;52.122;5.406;2022-11-18T14:03:31;12.88;;;6.05;;
72156;SDS011;60035;52.122;5.406;2022-11-18T14:06:00;12.82;;;5.60;;
72156;SDS011;60035;52.122;5.406;2022-11-18T14:08:28;11.48;;;4.85;;
72156;SDS011;60035;52.122;5.406;2022-11-18T14:10:56;13.07;;;5.25;;
72156;SDS011;60035;52.122;5.406;2022-11-18T14:13:25;11.05;;;5.47;;
72156;SDS011;60035;52.122;5.406;2022-11-18T14:15:53;11.00;;;5.50;;
72156;SDS011;60035;52.122;5.406;2022-11-18T14:20:50;12.70;;;5.85;;
72156;SDS011;60035;52.122;5.406;2022-11-18T14:23:19;13.38;;;5.80;;
72156;SDS011;60035;52.122;5.406;2022-11-18T14:25:52;14.32;;;5.97;;
72156;SDS011;60035;52.122;5.406;2022-11-18T14:28:19;11.38;;;6.05;;
72156;SDS011;60035;52.122;5.406;2022-11-18T14:33:30;10.80;;;5.65;;
72156;SDS011;60035;52.122;5.406;2022-11-18T14:35:58;13.02;;;5.50;;
72156;SDS011;60035;52.122;5.406;2022-11-18T14:41:23;12.95;;;5.43;;
72156;SDS011;60035;52.122;5.406;2022-11-18T14:44:10;11.82;;;5.25;;
72156;SDS011;60035;52.122;5.406;2022-11-18T14:46:39;13.40;;;5.05;;
72156;SDS011;60035;52.122;5.406;2022-11-18T14:49:12;9.38;;;4.50;;
72156;SDS011;60035;52.122;5.406;2022-11-18T14:51:42;11.63;;;4.88;;
72156;SDS011;60035;52.122;5.406;2022-11-18T14:54:13;13.55;;;4.80;;
72156;SDS011;60035;52.122;5.406;2022-11-18T14:56:52;12.55;;;5.15;;
72156;SDS011;60035;52.122;5.406;2022-11-18T14:59:21;13.13;;;5.57;;
72156;SDS011;60035;52.122;5.406;2022-11-18T15:01:47;11.30;;;5.72;;
72156;SDS011;60035;52.122;5.406;2022-11-18T15:04:14;13.25;;;5.30;;
72156;SDS011;60035;52.122;5.406;2022-11-18T15:06:44;13.20;;;4.93;;
72156;SDS011;60035;52.122;5.406;2022-11-18T15:09:10;13.98;;;5.50;;
72156;SDS011;60035;52.122;5.406;2022-11-18T15:11:37;13.32;;;5.55;;
72156;SDS011;60035;52.122;5.406;2022-11-18T15:14:04;12.98;;;5.57;;
72156;SDS011;60035;52.122;5.406;2022-11-18T15:16:31;11.30;;;5.25;;
72156;SDS011;60035;52.122;5.406;2022-11-18T15:18:59;12.18;;;5.32;;
72156;SDS011;60035;52.122;5.406;2022-11-18T15:21:28;11.20;;;5.13;;
72156;SDS011;60035;52.122;5.406;2022-11-18T15:23:55;14.13;;;5.65;;
72156;SDS011;60035;52.122;5.406;2022-11-18T15:26:23;12.48;;;5.45;;
72156;SDS011;60035;52.122;5.406;2022-11-18T15:28:52;14.73;;;5.55;;
72156;SDS011;60035;52.122;5.406;2022-11-18T15:31:20;13.60;;;6.20;;
72156;SDS011;60035;52.122;5.406;2022-11-18T15:33:48;12.30;;;5.63;;
72156;SDS011;60035;52.122;5.406;2022-11-18T15:36:17;14.35;;;5.45;;
72156;SDS011;60035;52.122;5.406;2022-11-18T15:38:45;12.65;;;5.93;;
72156;SDS011;60035;52.122;5.406;2022-11-18T15:43:43;14.25;;;6.10;;
72156;SDS011;60035;52.122;5.406;2022-11-18T15:46:10;13.48;;;5.80;;
72156;SDS011;60035;52.122;5.406;2022-11-18T15:48:39;14.88;;;5.95;;
72156;SDS011;60035;52.122;5.406;2022-11-18T15:51:06;15.20;;;6.70;;
72156;SDS011;60035;52.122;5.406;2022-11-18T15:53:37;19.27;;;7.13;;
72156;SDS011;60035;52.122;5.406;2022-11-18T15:58:40;17.80;;;6.25;;
72156;SDS011;60035;52.122;5.406;2022-11-18T16:01:07;16.67;;;7.45;;
72156;SDS011;60035;52.122;5.406;2022-11-18T16:03:34;12.88;;;6.55;;
72156;SDS011;60035;52.122;5.406;2022-11-18T16:06:00;16.25;;;7.57;;
72156;SDS011;60035;52.122;5.406;2022-11-18T16:08:27;18.92;;;8.98;;
72156;SDS011;60035;52.122;5.406;2022-11-18T16:10:55;20.20;;;8.98;;
72156;SDS011;60035;52.122;5.406;2022-11-18T16:13:43;20.85;;;8.82;;
72156;SDS011;60035;52.122;5.406;2022-11-18T16:16:17;20.08;;;10.40;;
72156;SDS011;60035;52.122;5.406;2022-11-18T16:18:44;20.52;;;8.85;;
72156;SDS011;60035;52.122;5.406;2022-11-18T16:21:11;20.00;;;8.57;;
72156;SDS011;60035;52.122;5.406;2022-11-18T16:23:37;19.55;;;8.73;;
72156;SDS011;60035;52.122;5.406;2022-11-18T16:26:04;18.95;;;9.73;;
72156;SDS011;60035;52.122;5.406;2022-11-18T16:28:31;26.02;;;11.55;;
72156;SDS011;60035;52.122;5.406;2022-11-18T16:30:57;21.58;;;10.40;;
72156;SDS011;60035;52.122;5.406;2022-11-18T16:33:42;19.25;;;8.82;;
72156;SDS011;60035;52.122;5.406;2022-11-18T16:36:09;16.58;;;7.97;;
72156;SDS011;60035;52.122;5.406;2022-11-18T16:38:35;21.20;;;6.93;;
72156;SDS011;60035;52.122;5.406;2022-11-18T16:41:01;15.07;;;6.45;;
72156;SDS011;60035;52.122;5.406;2022-11-18T16:43:48;15.25;;;6.82;;
72156;SDS011;60035;52.122;5.406;2022-11-18T16:46:15;14.88;;;7.50;;
72156;SDS011;60035;52.122;5.406;2022-11-18T16:48:41;15.55;;;6.82;;
72156;SDS011;60035;52.122;5.406;2022-11-18T16:51:18;15.45;;;6.68;;
72156;SDS011;60035;52.122;5.406;2022-11-18T16:53:56;14.18;;;6.82;;
72156;SDS011;60035;52.122;5.406;2022-11-18T16:56:24;14.15;;;6.55;;
72156;SDS011;60035;52.122;5.406;2022-11-18T16:59:00;16.13;;;6.80;;
72156;SDS011;60035;52.122;5.406;2022-11-18T17:01:32;17.48;;;8.32;;
72156;SDS011;60035;52.122;5.406;2022-11-18T17:03:59;15.95;;;8.27;;
72156;SDS011;60035;52.122;5.406;2022-11-18T17:06:26;18.90;;;8.02;;
72156;SDS011;60035;52.122;5.406;2022-11-18T17:08:53;19.27;;;8.40;;
72156;SDS011;60035;52.122;5.406;2022-11-18T17:11:20;20.83;;;10.10;;
72156;SDS011;60035;52.122;5.406;2022-11-18T17:13:47;23.40;;;14.18;;
72156;SDS011;60035;52.122;5.406;2022-11-18T17:16:19;20.33;;;8.73;;
72156;SDS011;60035;52.122;5.406;2022-11-18T17:18:47;22.60;;;8.13;;
72156;SDS011;60035;52.122;5.406;2022-11-18T17:21:18;18.25;;;9.90;;
72156;SDS011;60035;52.122;5.406;2022-11-18T17:23:46;20.33;;;9.65;;
72156;SDS011;60035;52.122;5.406;2022-11-18T17:26:15;16.25;;;8.63;;
72156;SDS011;60035;52.122;5.406;2022-11-18T17:28:43;22.60;;;9.38;;